Time;durP1;ratioP1;P1;durP2;ratioP2;P2;SDS_P1;SDS_P2;PMS_P1;PMS_P2;Temp;Humidity;BMP_temperature;BMP_pressure;BME280_temperature;BME280_humidity;BME280_pressure;Samples;Min_cycle;Max_cycle;Signal;HPM_P1;HPM_P2
2022/05/03 00:00:36;;;;;;;5.97;3.50;;;6.40;99.90;;;;;;5061473;28;20044;-47
2022/05/03 00:03:14;;;;;;;7.43;4.20;;;6.30;99.90;;;;;;5071436;28;20123;-48
2022/05/03 00:06:19;;;;;;;7.07;4.47;;;6.20;99.90;;;;;;5073734;28;20228;-49
2022/05/03 00:09:04;;;;;;;6.30;3.60;;;6.20;99.90;;;;;;5065162;28;20584;-48
2022/05/03 00:11:36;;;;;;;11.30;4.30;;;6.10;99.90;;;;;;5066871;28;20082;-47
2022/05/03 00:14:23;;;;;;;6.35;4.03;;;6.10;99.90;;;;;;5073599;28;20037;-48
2022/05/03 00:16:50;;;;;;;7.65;4.35;;;6.20;99.90;;;;;;5071013;28;20049;-49
2022/05/03 00:19:16;;;;;;;8.40;4.00;;;6.20;99.90;;;;;;5062114;28;20037;-50
2022/05/03 00:21:43;;;;;;;7.60;4.47;;;6.10;99.90;;;;;;5058951;28;20082;-47
2022/05/03 00:24:08;;;;;;;6.40;4.05;;;6.10;99.90;;;;;;5072915;28;20402;-48
2022/05/03 00:26:35;;;;;;;7.32;4.10;;;6.00;99.90;;;;;;5073314;28;20032;-49
2022/05/03 00:29:01;;;;;;;5.60;3.42;;;6.00;99.90;;;;;;5065060;28;20045;-48
2022/05/03 00:31:29;;;;;;;6.30;4.00;;;5.90;99.90;;;;;;5067550;28;20400;-48
2022/05/03 00:33:56;;;;;;;7.07;4.00;;;5.90;99.90;;;;;;5071560;28;20032;-47
2022/05/03 00:36:23;;;;;;;9.07;3.97;;;5.90;99.90;;;;;;5069942;28;20033;-48
2022/05/03 00:38:48;;;;;;;6.38;4.22;;;5.90;99.90;;;;;;5061639;28;20036;-47
2022/05/03 00:41:19;;;;;;;5.68;3.80;;;5.90;99.90;;;;;;5072624;28;20082;-48
2022/05/03 00:44:55;;;;;;;5.72;3.67;;;5.80;99.90;;;;;;5072974;28;20111;-47
2022/05/03 00:46:55;;;;;;;6.03;3.72;;;5.80;99.90;;;;;;5072312;28;20584;-47
2022/05/03 00:49:44;;;;;;;7.50;4.03;;;5.70;99.90;;;;;;5062373;28;20161;-48
2022/05/03 00:52:19;;;;;;;7.53;4.60;;;5.60;99.90;;;;;;5070193;28;20037;-47
2022/05/03 00:54:53;;;;;;;7.65;4.10;;;5.60;99.90;;;;;;5072463;28;20127;-47
2022/05/03 00:57:37;;;;;;;10.05;4.90;;;5.60;99.90;;;;;;5072105;28;20048;-47
2022/05/03 01:00:06;;;;;;;9.00;4.50;;;5.50;99.90;;;;;;5065831;28;20040;-49
2022/05/03 01:02:59;;;;;;;9.60;4.65;;;5.60;99.90;;;;;;5071687;28;20494;-51
2022/05/03 01:05:37;;;;;;;6.63;4.03;;;5.60;99.90;;;;;;5070191;28;20032;-51
2022/05/03 01:08:05;;;;;;;8.63;4.20;;;5.60;99.90;;;;;;5070826;28;20044;-51
2022/05/03 01:10:51;;;;;;;6.68;4.25;;;5.60;99.90;;;;;;5066290;28;20039;-52
2022/05/03 01:13:33;;;;;;;7.10;3.70;;;5.60;99.90;;;;;;5052345;28;20033;-51
2022/05/03 01:16:05;;;;;;;7.68;4.03;;;5.50;99.90;;;;;;5060253;28;20036;-47
2022/05/03 01:18:41;;;;;;;5.22;3.45;;;5.50;99.90;;;;;;5069397;28;20041;-49
2022/05/03 01:21:06;;;;;;;9.43;3.80;;;5.40;99.90;;;;;;5069233;28;20497;-48
2022/05/03 01:23:44;;;;;;;8.35;4.53;;;5.40;99.90;;;;;;5070675;28;20131;-51
2022/05/03 01:26:33;;;;;;;7.75;4.35;;;5.30;99.90;;;;;;5072052;28;20454;-50
2022/05/03 01:29:13;;;;;;;8.07;5.05;;;5.30;99.90;;;;;;5065938;28;20037;-51
2022/05/03 01:31:39;;;;;;;8.35;5.03;;;5.20;99.90;;;;;;5071227;28;20488;-50
2022/05/03 01:34:06;;;;;;;7.65;5.07;;;5.20;99.90;;;;;;5072065;28;20060;-51
2022/05/03 01:37:00;;;;;;;7.68;4.68;;;5.20;99.90;;;;;;5071853;28;20044;-47
2022/05/03 01:40:05;;;;;;;7.40;4.68;;;5.20;99.90;;;;;;5060684;28;20302;-49
2022/05/03 01:43:10;;;;;;;9.02;5.30;;;5.20;99.90;;;;;;5068083;28;20111;-49
2022/05/03 01:45:43;;;;;;;9.65;4.32;;;5.20;99.90;;;;;;5050409;28;20055;-48
2022/05/03 01:51:44;;;;;;;8.55;4.90;;;5.10;99.90;;;;;;5059973;28;20044;-48
2022/05/03 01:54:28;;;;;;;10.25;5.47;;;5.00;99.90;;;;;;5068675;28;20051;-50
2022/05/03 01:57:17;;;;;;;9.32;5.53;;;5.10;99.90;;;;;;5069013;28;20040;-49
2022/05/03 02:00:09;;;;;;;9.60;6.18;;;5.10;99.90;;;;;;5061014;28;20440;-49
2022/05/03 02:02:56;;;;;;;7.97;4.93;;;5.10;99.90;;;;;;5055318;28;20029;-50
2022/05/03 02:05:52;;;;;;;9.80;5.82;;;5.10;99.90;;;;;;5063891;28;20051;-47
2022/05/03 02:08:20;;;;;;;10.65;5.85;;;5.10;99.90;;;;;;5071084;28;20044;-48
2022/05/03 02:11:17;;;;;;;9.40;5.18;;;5.10;99.90;;;;;;5071519;28;20040;-47
2022/05/03 02:17:07;;;;;;;7.07;4.50;;;5.10;99.90;;;;;;5064267;28;20091;-51
2022/05/03 02:19:46;;;;;;;7.93;4.90;;;5.00;99.90;;;;;;5050536;28;20055;-51
2022/05/03 02:22:39;;;;;;;8.80;5.10;;;5.00;99.90;;;;;;5062991;28;20072;-50
2022/05/03 02:25:27;;;;;;;9.90;5.43;;;4.90;99.90;;;;;;5068142;28;21369;-47
2022/05/03 02:28:17;;;;;;;7.90;4.68;;;4.90;99.90;;;;;;5065438;28;20294;-52
2022/05/03 02:30:46;;;;;;;9.40;5.20;;;4.90;99.90;;;;;;5070410;28;20078;-51
2022/05/03 02:33:25;;;;;;;8.68;4.57;;;4.90;99.90;;;;;;5060991;28;20055;-48
2022/05/03 02:35:55;;;;;;;8.93;5.30;;;4.90;99.90;;;;;;5067659;28;20032;-47
2022/05/03 02:38:36;;;;;;;10.25;5.70;;;4.80;99.90;;;;;;5051177;28;20040;-47
2022/05/03 02:41:05;;;;;;;7.60;5.20;;;4.80;99.90;;;;;;5050699;28;20045;-48
2022/05/03 02:43:31;;;;;;;7.65;5.22;;;4.70;99.90;;;;;;5069932;28;20037;-47
2022/05/03 02:46:14;;;;;;;9.10;4.82;;;4.70;99.90;;;;;;5061522;28;20050;-47
2022/05/03 02:49:06;;;;;;;;;;;4.70;99.90;;;;;;5063942;28;20136;-47
2022/05/03 02:52:05;;;;;;;10.20;5.05;;;4.60;99.90;;;;;;5057877;28;19916;-49
2022/05/03 02:55:24;;;;;;;7.22;4.97;;;4.50;99.90;;;;;;5064881;28;20406;-46
2022/05/03 02:57:56;;;;;;;8.75;4.95;;;4.50;99.90;;;;;;4988268;28;20133;-49
2022/05/03 03:03:52;;;;;;;9.15;5.80;;;4.50;99.90;;;;;;5037618;28;20062;-47
2022/05/03 03:06:26;;;;;;;8.10;5.18;;;4.40;99.90;;;;;;5033185;28;20144;-47
2022/05/03 03:08:54;;;;;;;9.15;5.90;;;4.40;99.90;;;;;;5070284;28;20513;-47
2022/05/03 03:11:52;;;;;;;9.02;6.00;;;4.50;99.90;;;;;;5068219;28;20040;-47
2022/05/03 03:14:28;;;;;;;9.10;5.10;;;4.40;99.90;;;;;;5054313;28;20502;-49
2022/05/03 03:17:08;;;;;;;8.27;4.90;;;4.50;99.90;;;;;;5070592;28;20581;-49
2022/05/03 03:19:51;;;;;;;9.65;5.90;;;4.40;99.90;;;;;;5070805;28;20044;-50
2022/05/03 03:22:19;;;;;;;11.15;6.50;;;4.40;99.90;;;;;;5062941;28;20115;-51
2022/05/03 03:24:48;;;;;;;11.23;6.28;;;4.30;99.90;;;;;;5069879;28;20116;-51
2022/05/03 03:27:14;;;;;;;9.32;6.25;;;4.30;99.90;;;;;;5071351;28;20084;-51
2022/05/03 03:29:41;;;;;;;10.65;5.93;;;4.30;99.90;;;;;;5073662;28;20037;-49
2022/05/03 03:32:09;;;;;;;10.02;5.70;;;4.30;99.90;;;;;;5056038;28;20075;-51
2022/05/03 03:34:39;;;;;;;9.65;6.20;;;4.20;99.90;;;;;;5072761;28;20470;-51
2022/05/03 03:37:07;;;;;;;10.82;5.85;;;4.20;99.90;;;;;;5072720;28;20525;-50
2022/05/03 03:39:34;;;;;;;8.98;5.82;;;4.20;99.90;;;;;;5070210;28;20493;-52
2022/05/03 03:42:05;;;;;;;8.82;5.70;;;4.10;99.90;;;;;;5067356;28;20083;-51
2022/05/03 03:44:31;;;;;;;9.85;6.13;;;4.10;99.90;;;;;;5073565;28;20454;-51
2022/05/03 03:46:58;;;;;;;11.02;5.88;;;4.10;99.90;;;;;;5073896;28;20086;-50
2022/05/03 03:49:23;;;;;;;8.68;5.78;;;4.10;99.90;;;;;;5073822;28;20039;-49
2022/05/03 03:51:50;;;;;;;9.80;5.93;;;4.10;99.90;;;;;;5068109;28;20518;-52
2022/05/03 03:54:17;;;;;;;10.18;6.07;;;4.10;99.90;;;;;;5072917;28;20036;-49
2022/05/03 03:56:44;;;;;;;10.20;6.25;;;4.10;99.90;;;;;;5084607;22;20045;-49
2022/05/03 03:59:12;;;;;;;10.18;5.90;;;4.10;99.90;;;;;;5042343;28;20375;-50
2022/05/03 04:01:39;;;;;;;10.77;6.32;;;4.20;99.90;;;;;;5053211;28;20047;-48
2022/05/03 04:04:06;;;;;;;9.05;6.07;;;4.20;99.90;;;;;;5025766;28;20041;-49
2022/05/03 04:06:31;;;;;;;7.50;4.95;;;4.20;99.90;;;;;;5016000;28;20522;-50
2022/05/03 04:08:57;;;;;;;8.30;5.40;;;4.20;99.90;;;;;;5053104;28;20119;-48
2022/05/03 04:11:22;;;;;;;9.98;5.93;;;4.10;99.90;;;;;;5047070;28;20337;-50
2022/05/03 04:13:48;;;;;;;9.13;6.10;;;4.00;99.90;;;;;;5045527;28;20037;-50
2022/05/03 04:16:13;;;;;;;12.52;7.03;;;4.00;99.90;;;;;;5050520;28;20288;-51
2022/05/03 04:18:44;;;;;;;12.00;6.85;;;4.10;99.90;;;;;;4999491;28;20042;-49
2022/05/03 04:21:17;;;;;;;10.35;6.65;;;4.10;99.90;;;;;;5041642;28;20044;-51
2022/05/03 04:23:46;;;;;;;11.20;6.78;;;4.10;99.90;;;;;;5018780;28;20044;-51
2022/05/03 04:26:12;;;;;;;13.23;7.07;;;4.20;99.90;;;;;;5053286;28;20087;-50
2022/05/03 04:28:38;;;;;;;12.57;7.18;;;4.20;99.90;;;;;;5035950;28;20036;-50
2022/05/03 04:31:05;;;;;;;12.18;7.28;;;4.20;99.90;;;;;;5047390;28;20045;-48
2022/05/03 04:33:30;;;;;;;11.23;6.95;;;4.20;99.90;;;;;;5044767;28;20119;-51
2022/05/03 04:35:56;;;;;;;11.60;7.55;;;4.20;99.90;;;;;;5048973;28;20116;-51
2022/05/03 04:38:22;;;;;;;12.38;7.05;;;4.20;99.90;;;;;;5044248;28;20537;-51
2022/05/03 04:40:47;;;;;;;11.57;7.63;;;4.20;99.90;;;;;;5052141;28;20175;-50
2022/05/03 04:43:13;;;;;;;11.63;6.75;;;4.20;99.90;;;;;;5042456;28;20039;-49
2022/05/03 04:45:38;;;;;;;11.75;7.20;;;4.20;99.90;;;;;;5037867;28;20037;-49
2022/05/03 04:48:04;;;;;;;11.18;6.60;;;4.30;99.90;;;;;;5039073;28;20049;-50
2022/05/03 04:50:30;;;;;;;10.13;6.72;;;4.30;99.90;;;;;;5046504;28;20479;-50
2022/05/03 04:52:56;;;;;;;9.73;6.95;;;4.40;99.90;;;;;;5031763;28;20084;-50
2022/05/03 04:55:23;;;;;;;11.88;7.53;;;4.40;99.90;;;;;;5050832;28;20465;-50
2022/05/03 04:57:53;;;;;;;14.25;8.00;;;4.50;99.90;;;;;;5050616;28;20116;-51
2022/05/03 05:00:18;;;;;;;11.77;7.75;;;4.60;99.90;;;;;;5036338;28;20068;-50
2022/05/03 05:02:44;;;;;;;13.32;8.27;;;4.70;99.90;;;;;;5048786;28;20072;-50
2022/05/03 05:05:10;;;;;;;17.02;8.73;;;4.70;99.90;;;;;;5035303;28;20064;-49
2022/05/03 05:07:35;;;;;;;13.38;7.65;;;4.80;99.90;;;;;;5010063;28;20546;-50
2022/05/03 05:12:45;;;;;;;10.13;6.57;;;4.90;99.90;;;;;;5026267;28;20079;-47
2022/05/03 05:15:11;;;;;;;11.13;6.35;;;5.00;99.90;;;;;;5044000;28;20072;-49
2022/05/03 05:17:36;;;;;;;11.75;7.20;;;5.10;99.90;;;;;;5040376;28;20501;-49
2022/05/03 05:20:03;;;;;;;10.38;7.10;;;5.10;99.90;;;;;;5048927;28;20078;-47
2022/05/03 05:22:28;;;;;;;12.70;7.38;;;5.20;99.90;;;;;;5050029;28;20442;-48
2022/05/03 05:24:54;;;;;;;11.15;7.68;;;5.20;99.90;;;;;;5055868;28;20044;-51
2022/05/03 05:27:19;;;;;;;10.77;7.05;;;5.30;99.90;;;;;;5047815;28;20053;-48
2022/05/03 05:29:45;;;;;;;15.25;8.15;;;5.40;99.90;;;;;;5036958;28;20099;-50
2022/05/03 05:32:10;;;;;;;14.57;8.55;;;5.40;99.90;;;;;;5059679;28;20040;-50
2022/05/03 05:34:36;;;;;;;13.15;9.23;;;5.50;99.90;;;;;;5049920;28;20490;-48
2022/05/03 05:37:02;;;;;;;16.13;9.50;;;5.60;99.90;;;;;;5051643;28;20044;-48
2022/05/03 05:39:27;;;;;;;13.55;9.60;;;5.70;99.90;;;;;;5041986;28;20033;-51
2022/05/03 05:41:58;;;;;;;16.23;10.75;;;5.80;99.90;;;;;;5017025;28;20495;-51
2022/05/03 05:44:25;;;;;;;18.33;11.73;;;5.90;99.90;;;;;;5038848;28;20094;-50
2022/05/03 05:46:52;;;;;;;16.42;11.10;;;6.00;99.90;;;;;;5034732;28;20041;-50
2022/05/03 05:49:18;;;;;;;18.08;10.57;;;6.20;99.90;;;;;;5044500;28;20111;-47
2022/05/03 05:51:45;;;;;;;14.63;10.00;;;6.50;99.90;;;;;;5039857;28;20116;-49
2022/05/03 05:54:10;;;;;;;15.68;10.15;;;6.80;99.90;;;;;;5040057;28;20037;-50
2022/05/03 05:56:36;;;;;;;17.85;12.05;;;7.20;99.90;;;;;;5036035;28;20126;-51
2022/05/03 05:59:02;;;;;;;17.38;11.73;;;7.50;99.90;;;;;;5044110;28;20513;-51
2022/05/03 06:01:41;;;;;;;20.13;12.60;;;7.90;99.90;;;;;;5039614;28;20041;-51
2022/05/03 06:04:07;;;;;;;23.90;13.57;;;8.10;99.90;;;;;;5008800;28;20052;-48
2022/05/03 06:06:35;;;;;;;20.20;14.70;;;8.20;99.90;;;;;;5035009;28;20094;-47
2022/05/03 06:09:01;;;;;;;24.33;15.38;;;8.30;99.90;;;;;;5043118;28;20049;-48
2022/05/03 06:11:29;;;;;;;24.15;16.83;;;8.50;99.90;;;;;;5038871;28;20401;-47
2022/05/03 06:13:54;;;;;;;25.50;18.50;;;8.80;99.90;;;;;;5050082;28;20044;-48
2022/05/03 06:16:20;;;;;;;27.90;18.58;;;9.40;99.90;;;;;;5039340;28;20033;-48
2022/05/03 06:18:46;;;;;;;25.90;16.95;;;9.50;99.90;;;;;;5039494;28;20107;-50
2022/05/03 06:21:11;;;;;;;23.65;15.82;;;9.30;99.90;;;;;;5022357;28;20148;-51
2022/05/03 06:23:37;;;;;;;24.30;16.90;;;9.20;99.90;;;;;;5025221;28;20601;-51
2022/05/03 06:26:07;;;;;;;26.75;17.63;;;9.10;99.90;;;;;;5049408;28;20055;-51
2022/05/03 06:28:32;;;;;;;27.13;18.73;;;9.00;99.90;;;;;;5049286;28;20441;-52
2022/05/03 06:30:58;;;;;;;27.88;18.02;;;9.00;99.90;;;;;;5044217;28;20041;-49
2022/05/03 06:33:24;;;;;;;28.90;19.52;;;9.10;99.90;;;;;;5051030;28;20045;-51
2022/05/03 06:35:49;;;;;;;30.83;19.52;;;9.10;99.90;;;;;;5048140;28;20033;-48
2022/05/03 06:38:15;;;;;;;28.05;20.00;;;9.20;99.90;;;;;;5014248;28;20051;-48
2022/05/03 06:40:41;;;;;;;34.13;21.40;;;9.30;99.90;;;;;;5041556;28;20185;-48
2022/05/03 06:43:07;;;;;;;35.28;22.48;;;9.40;99.90;;;;;;5025618;28;20087;-47
2022/05/03 06:45:33;;;;;;;41.42;26.98;;;9.50;99.90;;;;;;5040049;28;20040;-48
2022/05/03 06:48:00;;;;;;;42.88;28.42;;;9.50;99.90;;;;;;5047308;28;20049;-49
2022/05/03 06:50:26;;;;;;;42.53;27.00;;;9.60;99.90;;;;;;5050927;28;20534;-49
2022/05/03 06:52:51;;;;;;;46.92;28.27;;;9.70;99.90;;;;;;5050957;28;20041;-48
2022/05/03 06:55:17;;;;;;;44.25;29.02;;;9.60;99.90;;;;;;5049710;28;20065;-48
2022/05/03 06:57:45;;;;;;;46.58;28.60;;;9.70;99.90;;;;;;5047847;28;20040;-50
2022/05/03 07:00:11;;;;;;;45.95;28.50;;;9.70;99.90;;;;;;5041645;28;20128;-48
2022/05/03 07:02:37;;;;;;;45.88;28.20;;;9.70;99.90;;;;;;5052494;28;20037;-48
2022/05/03 07:05:04;;;;;;;45.47;28.55;;;9.80;99.90;;;;;;5053475;28;20143;-48
2022/05/03 07:07:30;;;;;;;42.80;27.92;;;9.80;99.90;;;;;;5050811;28;20033;-48
2022/05/03 07:09:56;;;;;;;42.28;26.52;;;9.80;99.90;;;;;;5053759;28;20410;-49
2022/05/03 07:12:22;;;;;;;50.97;29.58;;;9.90;99.90;;;;;;5034435;28;20036;-49
2022/05/03 07:14:48;;;;;;;52.10;30.75;;;9.90;99.90;;;;;;5037696;28;20080;-48
2022/05/03 07:22:45;;;;;;;53.47;31.00;;;9.90;99.90;;;;;;5045219;28;20510;-47
2022/05/03 07:22:46;;;;;;;60.40;32.03;;;9.90;99.90;;;;;;5034096;28;20092;-48
2022/05/03 07:25:12;;;;;;;62.30;32.65;;;9.90;99.90;;;;;;5034609;28;20037;-48
2022/05/03 07:27:38;;;;;;;53.40;30.67;;;9.90;99.90;;;;;;5048805;28;20033;-48
2022/05/03 07:30:04;;;;;;;74.28;32.95;;;9.90;99.90;;;;;;5032870;28;20052;-48
2022/05/03 07:32:30;;;;;;;86.63;35.97;;;9.90;99.90;;;;;;5051275;28;20104;-48
2022/05/03 07:34:55;;;;;;;90.22;37.75;;;10.00;99.90;;;;;;5050488;28;20076;-48
2022/05/03 07:37:21;;;;;;;93.43;35.38;;;9.90;99.90;;;;;;5050338;28;20410;-48
2022/05/03 07:39:46;;;;;;;102.53;36.50;;;9.90;99.90;;;;;;5041907;28;20037;-48
2022/05/03 07:42:12;;;;;;;109.10;39.95;;;9.90;99.90;;;;;;5044923;28;20047;-48
2022/05/03 07:44:37;;;;;;;110.47;39.45;;;10.00;99.90;;;;;;5053135;28;20131;-49
2022/05/03 07:47:03;;;;;;;115.85;41.42;;;10.00;99.90;;;;;;5049812;28;20415;-48
2022/05/03 07:49:29;;;;;;;113.00;39.10;;;10.00;99.90;;;;;;5055169;28;20114;-48
2022/05/03 07:51:54;;;;;;;108.85;39.08;;;10.00;99.90;;;;;;5009426;28;20091;-48
2022/05/03 07:54:20;;;;;;;109.88;40.65;;;10.10;99.90;;;;;;5052289;28;20040;-48
2022/05/03 07:56:46;;;;;;;107.80;37.42;;;10.10;99.90;;;;;;5019308;28;20108;-48
2022/05/03 07:59:12;;;;;;;105.90;37.13;;;10.10;99.90;;;;;;5015846;28;20129;-48
2022/05/03 08:01:40;;;;;;;104.05;37.97;;;10.00;99.90;;;;;;5049948;28;20045;-51
2022/05/03 08:04:06;;;;;;;116.15;39.15;;;10.00;99.90;;;;;;5042856;28;20081;-48
2022/05/03 08:06:32;;;;;;;105.63;37.08;;;10.00;99.90;;;;;;5030750;28;20070;-48
2022/05/03 08:08:57;;;;;;;116.38;36.88;;;10.00;99.90;;;;;;5052740;28;20040;-49
2022/05/03 08:11:24;;;;;;;115.47;37.70;;;10.00;99.90;;;;;;5042208;28;20060;-47
2022/05/03 08:13:52;;;;;;;112.65;37.67;;;10.10;99.90;;;;;;5051916;28;20048;-48
2022/05/03 08:16:22;;;;;;;105.18;36.55;;;10.20;99.90;;;;;;5052535;28;20276;-50
2022/05/03 08:18:48;;;;;;;119.18;38.42;;;10.20;99.90;;;;;;5044725;28;20063;-48
2022/05/03 08:21:15;;;;;;;121.18;40.10;;;10.20;99.90;;;;;;5047329;28;20545;-49
2022/05/03 08:23:41;;;;;;;129.48;38.78;;;10.20;99.90;;;;;;5058129;28;20124;-48
2022/05/03 08:26:06;;;;;;;133.07;41.55;;;10.20;99.90;;;;;;5055501;28;20119;-48
2022/05/03 08:28:33;;;;;;;132.80;40.45;;;10.20;99.90;;;;;;5055834;28;20039;-51
2022/05/03 08:30:59;;;;;;;108.32;36.17;;;10.30;99.90;;;;;;5048351;28;20444;-52
2022/05/03 08:33:26;;;;;;;82.35;31.80;;;10.30;99.90;;;;;;5051022;28;20047;-48
2022/05/03 08:35:51;;;;;;;93.90;33.00;;;10.30;99.90;;;;;;5051450;28;20032;-48
2022/05/03 08:43:45;;;;;;;86.25;34.55;;;10.30;99.90;;;;;;5049275;28;20099;-48
2022/05/03 08:46:12;;;;;;;76.53;30.58;;;10.30;99.90;;;;;;5051025;28;20048;-48
2022/05/03 08:48:44;;;;;;;82.15;33.40;;;10.40;99.90;;;;;;5046713;28;20116;-48
2022/05/03 08:51:12;;;;;;;;;;;10.30;99.90;;;;;;5050366;28;20398;-49
2022/05/03 08:53:39;;;;;;;63.15;30.17;;;10.30;99.90;;;;;;5038862;28;19923;-48
2022/05/03 08:56:05;;;;;;;53.50;27.75;;;10.30;99.90;;;;;;5051899;28;20040;-48
2022/05/03 08:58:31;;;;;;;57.40;27.42;;;10.40;99.90;;;;;;5050979;28;20056;-49
2022/05/03 09:00:57;;;;;;;44.72;24.25;;;10.30;99.90;;;;;;5053323;28;20037;-50
2022/05/03 09:03:23;;;;;;;54.28;32.95;;;10.40;99.90;;;;;;5047425;28;20094;-48
2022/05/03 09:05:48;;;;;;;44.38;23.17;;;10.30;99.90;;;;;;5044266;28;20116;-48
2022/05/03 09:08:21;;;;;;;48.50;23.42;;;10.30;99.90;;;;;;5044888;28;20045;-48
2022/05/03 09:10:47;;;;;;;49.60;24.45;;;10.40;99.90;;;;;;5043723;28;20037;-48
2022/05/03 09:13:22;;;;;;;50.17;25.15;;;10.50;99.90;;;;;;5050978;28;20123;-50
2022/05/03 09:16:13;;;;;;;47.15;23.85;;;10.40;99.90;;;;;;5055633;28;20036;-48
2022/05/03 09:18:40;;;;;;;48.60;23.90;;;10.50;99.90;;;;;;5018461;28;20088;-49
2022/05/03 09:24:12;;;;;;;48.47;23.98;;;10.60;99.90;;;;;;5048949;28;20055;-48
2022/05/03 09:26:38;;;;;;;49.38;25.33;;;10.50;99.90;;;;;;5050584;28;20040;-48
2022/05/03 09:29:07;;;;;;;48.65;26.27;;;10.50;99.90;;;;;;5047498;28;20392;-47
2022/05/03 09:31:46;;;;;;;42.53;23.00;;;10.40;99.90;;;;;;5051252;28;20041;-48
2022/05/03 09:34:22;;;;;;;39.55;20.83;;;10.40;99.90;;;;;;5047582;28;20474;-48
2022/05/03 09:36:58;;;;;;;32.40;19.73;;;10.40;99.90;;;;;;5027277;28;20042;-48
2022/05/03 09:39:29;;;;;;;27.45;12.40;;;10.50;99.90;;;;;;5041005;28;20426;-48
2022/05/03 09:42:15;;;;;;;32.25;14.77;;;10.60;99.90;;;;;;5047279;28;20040;-48
2022/05/03 09:44:50;;;;;;;30.52;17.27;;;10.70;99.90;;;;;;5032683;28;20056;-48
2022/05/03 09:47:16;;;;;;;23.70;11.73;;;10.70;99.90;;;;;;5050297;28;20036;-48
2022/05/03 09:49:43;;;;;;;27.58;13.57;;;10.60;99.90;;;;;;5047988;28;20025;-49
2022/05/03 09:52:28;;;;;;;19.05;11.23;;;10.50;99.90;;;;;;5033584;28;20040;-50
2022/05/03 09:54:59;;;;;;;19.90;10.02;;;10.50;99.90;;;;;;5051170;28;20124;-48
2022/05/03 09:57:26;;;;;;;18.92;9.18;;;10.50;99.90;;;;;;5094205;22;20165;-50
2022/05/03 09:59:54;;;;;;;19.38;8.85;;;10.50;99.90;;;;;;5060936;28;20039;-49
2022/05/03 10:02:26;;;;;;;17.13;7.85;;;10.60;99.90;;;;;;5063834;28;20061;-47
2022/05/03 10:04:53;;;;;;;19.05;9.23;;;10.70;99.90;;;;;;5051169;28;20102;-48
2022/05/03 10:07:20;;;;;;;17.92;8.70;;;10.70;99.90;;;;;;5042259;28;20033;-48
2022/05/03 10:09:46;;;;;;;17.33;9.07;;;10.60;99.90;;;;;;5050491;28;20490;-49
2022/05/03 10:12:14;;;;;;;16.27;9.02;;;10.70;99.90;;;;;;5050409;28;20032;-49
2022/05/03 10:14:41;;;;;;;14.82;8.65;;;10.60;99.90;;;;;;5051866;28;20056;-47
2022/05/03 10:20:36;;;;;;;21.33;9.68;;;10.70;99.90;;;;;;5048565;28;20048;-51
2022/05/03 10:23:01;;;;;;;22.13;9.90;;;10.70;99.90;;;;;;5043588;28;20099;-48
2022/05/03 10:25:42;;;;;;;20.55;10.40;;;10.60;99.90;;;;;;5048919;28;20033;-47
2022/05/03 10:28:08;;;;;;;20.95;9.75;;;10.60;99.90;;;;;;5046380;28;20040;-47
2022/05/03 10:30:34;;;;;;;16.75;9.57;;;10.60;99.90;;;;;;5050422;28;20436;-47
2022/05/03 10:33:19;;;;;;;20.52;9.88;;;10.60;99.90;;;;;;5049712;28;20490;-48
2022/05/03 10:35:45;;;;;;;27.70;11.27;;;10.60;99.90;;;;;;5043895;28;20033;-48
2022/05/03 10:38:10;;;;;;;21.05;10.43;;;10.60;99.90;;;;;;5035028;28;20048;-50
2022/05/03 10:40:43;;;;;;;24.90;10.30;;;10.50;99.90;;;;;;5051966;28;20554;-49
2022/05/03 10:43:33;;;;;;;25.33;10.23;;;10.60;99.90;;;;;;5059640;28;20102;-52
2022/05/03 10:46:13;;;;;;;24.58;10.02;;;10.80;99.90;;;;;;5045003;28;20413;-51
2022/05/03 10:48:43;;;;;;;26.50;11.20;;;10.70;99.90;;;;;;5054618;28;20383;-50
2022/05/03 10:51:10;;;;;;;18.30;8.27;;;10.50;99.90;;;;;;5052084;28;20072;-49
2022/05/03 10:53:41;;;;;;;20.90;9.63;;;10.70;99.90;;;;;;5049685;28;20052;-47
2022/05/03 10:56:07;;;;;;;18.67;9.73;;;10.60;99.90;;;;;;5054756;28;20040;-50
2022/05/03 10:58:35;;;;;;;22.00;10.32;;;10.50;99.90;;;;;;5059034;28;20409;-49
2022/05/03 11:01:11;;;;;;;26.98;10.40;;;10.50;99.90;;;;;;5042121;28;20041;-50
2022/05/03 11:04:00;;;;;;;26.13;10.82;;;10.40;99.90;;;;;;5040853;28;20128;-50
2022/05/03 11:06:26;;;;;;;23.58;8.35;;;10.50;99.90;;;;;;5052590;28;20057;-51
2022/05/03 11:11:39;;;;;;;24.60;9.40;;;10.50;99.90;;;;;;5057477;28;20032;-51
2022/05/03 11:14:21;;;;;;;25.42;10.27;;;10.60;99.90;;;;;;5046227;28;20041;-48
2022/05/03 11:17:05;;;;;;;23.40;10.60;;;10.60;99.90;;;;;;5054551;28;20502;-49
2022/05/03 11:19:36;;;;;;;25.38;9.35;;;10.60;99.90;;;;;;5056443;28;20287;-50
2022/05/03 11:22:12;;;;;;;26.58;8.48;;;10.70;99.90;;;;;;5057198;28;20174;-49
2022/05/03 11:24:41;;;;;;;25.45;9.32;;;10.80;99.90;;;;;;5045883;28;20067;-48
2022/05/03 11:27:11;;;;;;;22.95;8.88;;;10.70;99.90;;;;;;5054327;28;20045;-50
2022/05/03 11:29:41;;;;;;;20.67;9.07;;;10.80;99.90;;;;;;5053529;28;20068;-51
2022/05/03 11:32:08;;;;;;;28.85;9.07;;;10.90;99.90;;;;;;5044936;28;20128;-48
2022/05/03 11:34:34;;;;;;;24.00;9.75;;;10.90;99.90;;;;;;5053637;28;20526;-49
2022/05/03 11:37:01;;;;;;;20.70;8.43;;;10.90;99.90;;;;;;5063779;28;20037;-49
2022/05/03 11:39:27;;;;;;;18.83;8.48;;;10.80;99.90;;;;;;5033185;28;20094;-53
2022/05/03 11:41:53;;;;;;;25.48;8.32;;;10.90;99.90;;;;;;5056192;28;20029;-49
2022/05/03 11:44:19;;;;;;;25.45;8.90;;;11.00;99.90;;;;;;5046100;28;20518;-47
2022/05/03 11:46:47;;;;;;;22.30;8.38;;;11.00;99.90;;;;;;5063299;28;20037;-50
2022/05/03 11:49:14;;;;;;;20.42;7.18;;;11.00;99.90;;;;;;5054989;28;20041;-47
2022/05/03 11:57:26;;;;;;;24.60;7.77;;;11.10;99.90;;;;;;5044853;28;20128;-51
2022/05/03 11:59:58;;;;;;;17.40;7.50;;;11.10;99.90;;;;;;5053678;28;20294;-47
2022/05/03 12:02:36;;;;;;;27.30;7.20;;;11.10;99.90;;;;;;5046173;28;20045;-48
2022/05/03 12:05:05;;;;;;;16.23;6.40;;;11.20;99.90;;;;;;5053829;28;20427;-48
2022/05/03 12:07:35;;;;;;;23.90;7.25;;;11.30;99.90;;;;;;5053289;28;20607;-48
2022/05/03 12:10:01;;;;;;;16.73;6.43;;;11.40;99.90;;;;;;5057276;28;20052;-48
2022/05/03 12:12:45;;;;;;;20.63;6.07;;;11.40;99.90;;;;;;5051771;28;20051;-48
2022/05/03 12:15:21;;;;;;;18.70;6.75;;;11.40;99.90;;;;;;5058083;28;20032;-48
2022/05/03 12:17:52;;;;;;;23.88;6.47;;;11.60;99.90;;;;;;5034784;28;20502;-49
2022/05/03 12:20:18;;;;;;;18.60;5.97;;;11.60;99.90;;;;;;5051788;28;20036;-48
2022/05/03 12:22:43;;;;;;;25.85;6.35;;;11.70;99.90;;;;;;5040198;28;20513;-49
2022/05/03 12:25:09;;;;;;;19.23;5.70;;;11.70;99.90;;;;;;5056355;28;20123;-49
2022/05/03 12:27:35;;;;;;;16.20;6.32;;;11.70;99.90;;;;;;5056016;28;20087;-50
2022/05/03 12:30:10;;;;;;;13.07;4.78;;;11.80;99.90;;;;;;5049962;28;20041;-48
2022/05/03 12:32:35;;;;;;;23.55;6.38;;;12.00;99.90;;;;;;5053147;28;20044;-48
2022/05/03 12:35:02;;;;;;;16.75;5.60;;;12.00;99.90;;;;;;5052955;28;20040;-48
2022/05/03 12:37:29;;;;;;;18.02;6.53;;;12.00;99.90;;;;;;5055973;28;20524;-48
2022/05/03 12:40:01;;;;;;;18.25;5.38;;;12.10;99.90;;;;;;5044719;28;20037;-51
2022/05/03 12:42:27;;;;;;;12.50;4.32;;;12.10;99.90;;;;;;5043461;28;20044;-48
2022/05/03 12:44:59;;;;;;;19.92;6.80;;;12.10;99.90;;;;;;5052005;28;20048;-48
2022/05/03 12:47:28;;;;;;;18.20;5.68;;;12.10;99.90;;;;;;5054470;28;20073;-48
2022/05/03 12:49:53;;;;;;;17.88;5.60;;;12.10;99.90;;;;;;5043726;28;20107;-49
2022/05/03 12:52:19;;;;;;;17.15;5.60;;;12.10;99.90;;;;;;5044087;28;20593;-48
2022/05/03 12:54:48;;;;;;;11.77;4.75;;;12.30;99.90;;;;;;5048854;28;20269;-48
2022/05/03 12:59:58;;;;;;;12.48;4.60;;;12.20;99.90;;;;;;5047397;28;20510;-48
2022/05/03 13:02:25;;;;;;;11.68;4.38;;;12.20;99.90;;;;;;5051423;28;20084;-49
2022/05/03 13:04:51;;;;;;;12.82;4.18;;;12.20;99.90;;;;;;5055672;28;20108;-49
2022/05/03 13:07:17;;;;;;;11.90;3.70;;;12.20;99.90;;;;;;5041328;28;20029;-48
2022/05/03 13:09:42;;;;;;;14.82;4.35;;;12.20;99.90;;;;;;5052157;28;20447;-48
2022/05/03 13:12:09;;;;;;;16.65;3.80;;;12.20;99.90;;;;;;5047388;28;20044;-48
2022/05/03 13:14:35;;;;;;;12.27;4.00;;;12.20;99.90;;;;;;5045281;28;20045;-48
2022/05/03 13:17:01;;;;;;;10.88;4.15;;;12.20;99.90;;;;;;5033932;28;20037;-49
2022/05/03 13:19:27;;;;;;;13.45;3.78;;;12.30;99.90;;;;;;5048982;28;20546;-48
2022/05/03 13:21:56;;;;;;;14.73;4.60;;;12.40;99.90;;;;;;5045182;28;20044;-49
2022/05/03 13:24:25;;;;;;;10.73;3.33;;;12.40;99.90;;;;;;5043494;28;20060;-48
2022/05/03 13:26:50;;;;;;;14.13;3.80;;;12.50;99.90;;;;;;5054016;28;20033;-52
2022/05/03 13:29:18;;;;;;;13.85;4.25;;;12.50;99.90;;;;;;5045843;28;20049;-49
2022/05/03 13:31:44;;;;;;;14.48;4.13;;;12.50;99.90;;;;;;5049397;28;20051;-51
2022/05/03 13:34:10;;;;;;;8.52;3.60;;;12.60;99.90;;;;;;5038866;28;20164;-50
2022/05/03 13:42:06;;;;;;;12.82;3.92;;;12.80;99.40;;;;;;5037167;28;20064;-51